createdAt,value
2019-02-25T00:04:36.720Z,54.42
2019-02-25T00:09:41.995Z,53.83
2019-02-25T00:14:45.625Z,57.45
2019-02-25T00:19:48.982Z,62.93
2019-02-25T00:24:53.074Z,61.15
2019-02-25T00:29:56.447Z,59.20
2019-02-25T00:34:59.976Z,58.60
2019-02-25T00:40:05.439Z,60.63
2019-02-25T00:45:11.124Z,59.10
2019-02-25T00:50:16.252Z,60.95
2019-02-25T00:55:19.577Z,62.08
2019-02-25T01:00:25.527Z,62.88
2019-02-25T01:05:28.999Z,49.73
2019-02-25T01:10:34.996Z,57.55
2019-02-25T01:15:38.363Z,57.55
2019-02-25T01:20:41.795Z,54.25
2019-02-25T01:25:45.179Z,50.98
2019-02-25T01:30:48.586Z,54.83
2019-02-25T01:35:52.150Z,55.40
2019-02-25T01:40:57.189Z,56.85
2019-02-25T01:46:00.830Z,48.23
2019-02-25T01:51:04.535Z,56.75
2019-02-25T01:56:07.910Z,53.08
2019-02-25T02:01:13.666Z,64.17
2019-02-25T02:06:17.581Z,61.65
2019-02-25T02:11:22.858Z,61.40
2019-02-25T02:16:27.521Z,63.87
2019-02-25T02:21:30.825Z,55.03
2019-02-25T02:26:34.187Z,52.30
2019-02-25T02:31:38.570Z,55.65
2019-02-25T02:36:42.286Z,52.33
2019-02-25T02:42:15.076Z,55.28
2019-02-25T02:47:24.718Z,52.95
2019-02-25T02:57:31.112Z,48.35
2019-02-25T03:02:35.151Z,49.93
2019-02-25T03:07:38.537Z,51.15
2019-02-25T03:12:41.858Z,50.35
2019-02-25T03:17:45.228Z,44.67
2019-02-25T03:22:48.586Z,55.70
2019-02-25T03:27:51.986Z,49.70
2019-02-25T03:32:55.334Z,58.90
2019-02-25T03:37:59.388Z,53.38
2019-02-25T03:43:03.464Z,55.33
2019-02-25T03:48:06.849Z,51.25
2019-02-25T03:53:11.020Z,54.53
2019-02-25T03:58:14.412Z,53.70
2019-02-25T04:03:18.117Z,50.10
2019-02-25T04:08:21.543Z,52.40
2019-02-25T04:13:25.524Z,47.90
2019-02-25T04:18:29.328Z,52.55
2019-02-25T04:23:32.693Z,52.88
2019-02-25T04:28:36.046Z,54.65
2019-02-25T04:33:39.507Z,50.73
2019-02-25T04:38:43.624Z,47.27
2019-02-25T04:43:47.944Z,45.65
2019-02-25T04:48:51.790Z,48.78
2019-02-25T04:53:55.130Z,50.60
2019-02-25T04:58:58.444Z,51.05
2019-02-25T05:04:01.860Z,45.10
2019-02-25T05:09:08.057Z,53.00
2019-02-25T05:14:12.699Z,53.05
2019-02-25T05:19:17.376Z,49.63
2019-02-25T05:24:21.462Z,48.48
2019-02-25T05:29:24.789Z,53.52
2019-02-25T05:34:28.203Z,47.88
2019-02-25T05:39:31.577Z,51.95
2019-02-25T05:44:35.479Z,56.37
2019-02-25T05:49:38.839Z,49.55
2019-02-25T05:54:43.716Z,50.20
2019-02-25T05:59:47.050Z,55.52
2019-02-25T06:04:52.080Z,57.70
2019-02-25T06:09:57.732Z,52.90
2019-02-25T06:15:01.134Z,70.42
2019-02-25T06:20:08.313Z,59.00
2019-02-25T06:25:15.418Z,48.40
2019-02-25T06:30:21.202Z,57.33
2019-02-25T06:35:27.113Z,56.65
2019-02-25T06:40:30.458Z,49.23
2019-02-25T06:45:37.780Z,48.48
2019-02-25T06:50:42.172Z,51.18
2019-02-25T06:55:48.332Z,49.53
2019-02-25T07:00:51.835Z,44.48
2019-02-25T07:06:03.084Z,50.98
2019-02-25T07:11:11.002Z,51.15
2019-02-25T07:16:21.381Z,51.73
2019-02-25T07:21:42.467Z,49.98
2019-02-25T07:27:00.764Z,54.90
2019-02-25T07:32:13.385Z,57.58
2019-02-25T07:37:19.047Z,56.83
2019-02-25T07:42:29.955Z,53.52
2019-02-25T07:47:35.576Z,49.93
2019-02-25T07:52:40.650Z,51.13
2019-02-25T07:58:04.147Z,48.87
2019-02-25T08:03:22.223Z,49.40
2019-02-25T08:08:44.663Z,52.85
2019-02-25T08:13:52.613Z,46.60
2019-02-25T08:19:04.497Z,41.60
2019-02-25T08:24:13.466Z,52.17
2019-02-25T08:29:27.770Z,50.47
2019-02-25T08:34:47.075Z,49.85
2019-02-25T08:39:56.688Z,50.58
2019-02-25T08:45:05.401Z,47.27
2019-02-25T08:50:12.216Z,48.05
2019-02-25T08:55:16.072Z,45.33
2019-02-25T09:00:21.136Z,48.75
2019-02-25T09:05:25.406Z,52.62
2019-02-25T09:10:31.804Z,50.38
2019-02-25T09:15:39.616Z,46.05
2019-02-25T09:20:46.758Z,45.55
2019-02-25T09:25:53.227Z,48.90
2019-02-25T09:30:59.212Z,46.02
2019-02-25T09:36:04.585Z,47.38
2019-02-25T09:41:09.133Z,50.17
2019-02-25T09:46:12.523Z,48.52
2019-02-25T09:51:19.379Z,52.10
2019-02-25T09:56:26.762Z,48.23
2019-02-25T10:01:31.637Z,42.45
2019-02-25T10:06:35.813Z,48.28
2019-02-25T10:11:44.784Z,46.70
2019-02-25T10:16:49.183Z,45.08
2019-02-25T10:21:53.414Z,54.33
2019-02-25T10:26:56.882Z,47.05
2019-02-25T10:32:02.167Z,52.80
2019-02-25T10:37:09.040Z,49.42
2019-02-25T10:42:12.439Z,50.28
2019-02-25T10:47:19.334Z,56.08
2019-02-25T10:52:23.590Z,49.13
2019-02-25T10:57:29.239Z,59.05
2019-02-25T11:02:43.882Z,46.85
2019-02-25T11:07:42.047Z,49.73
2019-02-25T11:12:55.503Z,48.15
2019-02-25T11:17:59.707Z,48.98
2019-02-25T11:23:21.092Z,56.00
2019-02-25T11:28:26.362Z,50.15
2019-02-25T11:33:32.575Z,52.15
2019-02-25T11:38:38.618Z,47.85
2019-02-25T11:43:48.107Z,52.88
2019-02-25T11:48:52.916Z,51.28
2019-02-25T11:54:00.098Z,50.28
2019-02-25T11:59:06.863Z,47.50
2019-02-25T12:04:10.906Z,51.55
2019-02-25T12:09:14.821Z,50.20
2019-02-25T12:14:18.241Z,47.65
2019-02-25T12:19:22.737Z,54.70
2019-02-25T12:24:28.405Z,49.42
2019-02-25T12:29:33.395Z,44.33
2019-02-25T12:34:38.955Z,51.35
2019-02-25T12:39:42.568Z,54.25
2019-02-25T12:44:46.658Z,52.48
2019-02-25T12:49:54.269Z,52.10
2019-02-25T12:54:59.088Z,52.25
2019-02-25T13:00:04.964Z,60.63
2019-02-25T13:05:16.942Z,58.25
2019-02-25T13:10:21.814Z,59.38
2019-02-25T13:15:25.834Z,56.35
2019-02-25T13:20:32.230Z,59.48
2019-02-25T13:25:39.206Z,60.08
2019-02-25T13:30:45.308Z,67.17
2019-02-25T13:35:49.891Z,63.45
2019-02-25T13:40:54.059Z,62.43
2019-02-25T13:46:00.918Z,69.87
2019-02-25T13:51:05.051Z,64.85
2019-02-25T13:56:08.459Z,62.50
2019-02-25T14:01:14.774Z,62.90
2019-02-25T14:06:19.774Z,68.33
2019-02-25T14:11:23.265Z,73.12
2019-02-25T14:16:28.104Z,74.87
2019-02-25T14:21:44.717Z,77.90
2019-02-25T14:26:48.119Z,74.55
2019-02-25T14:31:51.540Z,75.60
2019-02-25T14:36:57.812Z,73.83
2019-02-25T14:42:04.299Z,73.80
2019-02-25T14:47:19.779Z,78.05
2019-02-25T14:52:13.757Z,80.22
2019-02-25T14:57:20.556Z,94.42
2019-02-25T15:02:29.559Z,89.62
2019-02-25T15:07:36.211Z,87.12
2019-02-25T15:12:42.335Z,87.50
2019-02-25T15:17:58.973Z,97.85
2019-02-25T15:23:07.292Z,95.97
2019-02-25T15:33:40.385Z,95.72
2019-02-25T15:38:48.112Z,101.30
2019-02-25T15:49:13.005Z,95.10
2019-02-25T15:54:17.653Z,99.52
2019-02-25T15:59:31.892Z,118.02
2019-02-25T16:04:31.855Z,121.85
2019-02-25T16:09:37.152Z,118.70
2019-02-25T16:15:07.037Z,114.72
2019-02-25T16:20:19.550Z,122.63
2019-02-25T16:25:27.107Z,121.15
2019-02-25T16:30:37.470Z,119.87
2019-02-25T16:35:48.297Z,119.82
2019-02-25T16:40:54.670Z,117.13
2019-02-25T16:45:59.520Z,110.80
2019-02-25T16:51:05.496Z,111.03
2019-02-25T16:56:15.732Z,115.32
2019-02-25T17:01:22.072Z,105.92
2019-02-25T17:06:28.179Z,105.65
2019-02-25T17:11:32.940Z,109.48
2019-02-25T17:16:36.332Z,108.87
2019-02-25T17:21:43.072Z,95.70
2019-02-25T17:26:44.827Z,95.83
2019-02-25T17:31:52.823Z,94.47
2019-02-25T17:36:57.297Z,96.27
2019-02-25T17:42:20.217Z,96.70
2019-02-25T17:47:24.706Z,99.28
2019-02-25T17:52:29.690Z,104.63
2019-02-25T17:57:37.245Z,114.52
2019-02-25T18:02:40.687Z,131.65
2019-02-25T18:07:46.423Z,145.87
2019-02-25T18:12:49.901Z,153.42
2019-02-25T18:17:53.970Z,155.03
2019-02-25T18:22:59.551Z,164.57
2019-02-25T18:28:08.410Z,151.45
2019-02-25T18:33:14.216Z,151.10
2019-02-25T18:38:17.879Z,142.20
2019-02-25T18:43:28.358Z,142.13
2019-02-25T18:48:34.148Z,148.28
2019-02-25T18:53:38.269Z,149.23
2019-02-25T18:58:43.945Z,141.05
2019-02-25T19:03:48.437Z,130.67
2019-02-25T19:08:55.601Z,134.82
2019-02-25T19:14:01.847Z,138.97
2019-02-25T19:19:06.416Z,138.30
2019-02-25T19:24:12.098Z,136.72
2019-02-25T19:29:17.848Z,132.75
2019-02-25T19:34:23.228Z,131.50
2019-02-25T19:39:26.580Z,138.07
2019-02-25T19:44:32.125Z,136.15
2019-02-25T19:49:37.129Z,145.57
2019-02-25T19:54:45.837Z,137.80
2019-02-25T19:59:55.371Z,148.38
2019-02-25T20:04:56.739Z,140.47
2019-02-25T20:10:00.584Z,140.95
2019-02-25T20:15:10.968Z,144.15
2019-02-25T20:20:16.081Z,140.28
2019-02-25T20:25:21.273Z,135.07
2019-02-25T20:30:26.505Z,144.37
2019-02-25T20:35:31.288Z,147.72
2019-02-25T20:40:34.749Z,154.65
2019-02-25T20:45:39.061Z,164.47
2019-02-25T20:56:35.905Z,170.05
2019-02-25T21:01:42.325Z,168.15
2019-02-25T21:06:45.063Z,185.15
2019-02-25T21:11:49.163Z,177.25
2019-02-25T21:16:54.299Z,178.00
2019-02-25T21:21:59.782Z,161.37
2019-02-25T21:27:03.768Z,168.30
2019-02-25T21:32:07.965Z,161.65
2019-02-25T21:37:11.271Z,145.12
2019-02-25T21:42:15.366Z,150.95
2019-02-25T21:47:23.836Z,159.00
2019-02-25T21:52:26.337Z,166.65
2019-02-25T21:57:31.329Z,186.30
2019-02-25T22:02:37.273Z,168.68
2019-02-25T22:07:40.329Z,153.70
2019-02-25T22:12:44.345Z,143.13
2019-02-25T22:17:50.048Z,161.70
2019-02-25T22:22:57.424Z,164.75
2019-02-25T22:28:03.239Z,168.60
2019-02-25T22:33:26.627Z,140.18
2019-02-25T22:38:24.363Z,144.35
2019-02-25T22:43:28.517Z,148.55
2019-02-25T22:48:35.006Z,148.65
2019-02-25T22:53:39.606Z,141.12
2019-02-25T22:58:44.747Z,142.35
2019-02-25T23:03:50.542Z,142.62
2019-02-25T23:08:55.646Z,141.47
2019-02-25T23:14:07.191Z,160.70
2019-02-25T23:19:13.637Z,162.53
2019-02-25T23:24:21.644Z,139.72
2019-02-25T23:29:28.238Z,139.60
2019-02-25T23:34:58.790Z,146.53
2019-02-25T23:40:04.365Z,146.82
2019-02-25T23:45:12.982Z,154.15
2019-02-25T23:50:25.665Z,145.87
